sensor_id;sensor_type;location;lat;lon;timestamp;pressure;altitude;pressure_sealevel;temperature;humidity
48077;BME280;33854;57.708;12.008;2023-04-15T00:00:02;100812.13;;;7.61;100.00
48077;BME280;33854;57.708;12.008;2023-04-15T00:02:27;100810.44;;;7.60;100.00
48077;BME280;33854;57.708;12.008;2023-04-15T00:04:53;100807.16;;;7.55;100.00
48077;BME280;33854;57.708;12.008;2023-04-15T00:07:19;100824.50;;;7.54;100.00
48077;BME280;33854;57.708;12.008;2023-04-15T00:09:44;100828.06;;;7.50;100.00
48077;BME280;33854;57.708;12.008;2023-04-15T00:12:10;100817.78;;;7.47;100.00
48077;BME280;33854;57.708;12.008;2023-04-15T00:14:36;100823.91;;;7.44;100.00
48077;BME280;33854;57.708;12.008;2023-04-15T00:17:02;100812.69;;;7.44;100.00
48077;BME280;33854;57.708;12.008;2023-04-15T00:19:28;100819.59;;;7.45;100.00
48077;BME280;33854;57.708;12.008;2023-04-15T00:21:54;100812.69;;;7.44;100.00
48077;BME280;33854;57.708;12.008;2023-04-15T00:24:19;100823.88;;;7.46;100.00
48077;BME280;33854;57.708;12.008;2023-04-15T00:26:45;100800.75;;;7.38;100.00
48077;BME280;33854;57.708;12.008;2023-04-15T00:29:11;100829.91;;;7.46;100.00
48077;BME280;33854;57.708;12.008;2023-04-15T00:31:36;100827.22;;;7.50;100.00
48077;BME280;33854;57.708;12.008;2023-04-15T00:34:02;100818.56;;;7.49;100.00
48077;BME280;33854;57.708;12.008;2023-04-15T00:36:27;100821.16;;;7.49;100.00
48077;BME280;33854;57.708;12.008;2023-04-15T00:38:53;100816.78;;;7.51;100.00
48077;BME280;33854;57.708;12.008;2023-04-15T00:41:18;100823.66;;;7.52;100.00
48077;BME280;33854;57.708;12.008;2023-04-15T00:43:45;100823.66;;;7.52;100.00
48077;BME280;33854;57.708;12.008;2023-04-15T00:46:12;100811.59;;;7.51;100.00
48077;BME280;33854;57.708;12.008;2023-04-15T00:48:38;100820.16;;;7.55;100.00
48077;BME280;33854;57.708;12.008;2023-04-15T00:51:04;100833.81;;;7.60;100.00
48077;BME280;33854;57.708;12.008;2023-04-15T00:53:31;100828.66;;;7.58;100.00
48077;BME280;33854;57.708;12.008;2023-04-15T00:55:56;100833.81;;;7.60;100.00
48077;BME280;33854;57.708;12.008;2023-04-15T00:58:22;100835.50;;;7.61;100.00
48077;BME280;33854;57.708;12.008;2023-04-15T01:00:47;100827.72;;;7.61;100.00
48077;BME280;33854;57.708;12.008;2023-04-15T01:03:13;100839.03;;;7.60;100.00
48077;BME280;33854;57.708;12.008;2023-04-15T01:05:39;100836.34;;;7.61;100.00
48077;BME280;33854;57.708;12.008;2023-04-15T01:08:05;100821.72;;;7.59;100.00
48077;BME280;33854;57.708;12.008;2023-04-15T01:10:32;100846.53;;;7.69;100.00
48077;BME280;33854;57.708;12.008;2023-04-15T01:12:57;100833.66;;;7.64;100.00
48077;BME280;33854;57.708;12.008;2023-04-15T01:15:23;100840.47;;;7.68;100.00
48077;BME280;33854;57.708;12.008;2023-04-15T01:17:49;100835.56;;;7.59;100.00
48077;BME280;33854;57.708;12.008;2023-04-15T01:20:14;100826.31;;;7.51;100.00
48077;BME280;33854;57.708;12.008;2023-04-15T01:22:40;100843.34;;;7.59;100.00
48077;BME280;33854;57.708;12.008;2023-04-15T01:25:11;100842.47;;;7.60;100.00
48077;BME280;33854;57.708;12.008;2023-04-15T01:27:38;100844.16;;;7.61;100.00
48077;BME280;33854;57.708;12.008;2023-04-15T01:30:06;100840.59;;;7.64;100.00
48077;BME280;33854;57.708;12.008;2023-04-15T01:32:32;100839.72;;;7.65;100.00
48077;BME280;33854;57.708;12.008;2023-04-15T01:34:57;100843.19;;;7.64;100.00
48077;BME280;33854;57.708;12.008;2023-04-15T01:37:23;100840.59;;;7.64;100.00
48077;BME280;33854;57.708;12.008;2023-04-15T01:39:48;100836.34;;;7.61;100.00
48077;BME280;33854;57.708;12.008;2023-04-15T01:42:14;100830.28;;;7.62;100.00
48077;BME280;33854;57.708;12.008;2023-04-15T01:44:39;100830.38;;;7.59;100.00
48077;BME280;33854;57.708;12.008;2023-04-15T01:47:05;100838.97;;;7.61;100.00
48077;BME280;33854;57.708;12.008;2023-04-15T01:49:31;100834.63;;;7.62;100.00
48077;BME280;33854;57.708;12.008;2023-04-15T01:51:56;100834.88;;;7.54;100.00
48077;BME280;33854;57.708;12.008;2023-04-15T01:54:22;100832.97;;;7.59;100.00
48077;BME280;33854;57.708;12.008;2023-04-15T01:56:47;100830.41;;;7.58;100.00
48077;BME280;33854;57.708;12.008;2023-04-15T01:59:13;100835.66;;;7.56;100.00
48077;BME280;33854;57.708;12.008;2023-04-15T02:01:38;100838.25;;;7.56;100.00
48077;BME280;33854;57.708;12.008;2023-04-15T02:04:05;100831.63;;;7.47;100.00
48077;BME280;33854;57.708;12.008;2023-04-15T02:06:31;100841.72;;;7.57;100.00
48077;BME280;33854;57.708;12.008;2023-04-15T02:08:56;100839.16;;;7.55;100.00
48077;BME280;33854;57.708;12.008;2023-04-15T02:11:23;100842.56;;;7.57;100.00
48077;BME280;33854;57.708;12.008;2023-04-15T02:13:48;100839.16;;;7.55;100.00
48077;BME280;33854;57.708;12.008;2023-04-15T02:16:16;100846.84;;;7.58;100.00
48077;BME280;33854;57.708;12.008;2023-04-15T02:18:45;100844.34;;;7.55;100.00
48077;BME280;33854;57.708;12.008;2023-04-15T02:21:11;100849.44;;;7.58;100.00
48077;BME280;33854;57.708;12.008;2023-04-15T02:23:36;100846.13;;;7.55;100.00
48077;BME280;33854;57.708;12.008;2023-04-15T02:26:02;100845.38;;;7.50;100.00
48077;BME280;33854;57.708;12.008;2023-04-15T02:28:27;100856.59;;;7.52;100.00
48077;BME280;33854;57.708;12.008;2023-04-15T02:30:53;100847.25;;;7.46;100.00
48077;BME280;33854;57.708;12.008;2023-04-15T02:33:21;100854.97;;;7.47;100.00
48077;BME280;33854;57.708;12.008;2023-04-15T02:35:46;100854.91;;;7.49;100.00
48077;BME280;33854;57.708;12.008;2023-04-15T02:38:12;100852.31;;;7.49;100.00
48077;BME280;33854;57.708;12.008;2023-04-15T02:40:39;100859.41;;;7.44;100.00
48077;BME280;33854;57.708;12.008;2023-04-15T02:43:04;100852.56;;;7.41;100.00
48077;BME280;33854;57.708;12.008;2023-04-15T02:45:31;100857.75;;;7.43;100.00
48077;BME280;33854;57.708;12.008;2023-04-15T02:47:56;100856.78;;;7.45;100.00
48077;BME280;33854;57.708;12.008;2023-04-15T02:50:22;100858.53;;;7.45;100.00
48077;BME280;33854;57.708;12.008;2023-04-15T02:52:48;100861.16;;;7.43;100.00
48077;BME280;33854;57.708;12.008;2023-04-15T02:55:14;100864.69;;;7.41;100.00
48077;BME280;33854;57.708;12.008;2023-04-15T02:57:39;100861.22;;;7.42;100.00
48077;BME280;33854;57.708;12.008;2023-04-15T03:00:06;100871.44;;;7.46;100.00
48077;BME280;33854;57.708;12.008;2023-04-15T03:02:37;100875.75;;;7.47;100.00
48077;BME280;33854;57.708;12.008;2023-04-15T03:05:04;100874.09;;;7.45;100.00
48077;BME280;33854;57.708;12.008;2023-04-15T03:07:30;100871.63;;;7.40;100.00
48077;BME280;33854;57.708;12.008;2023-04-15T03:09:55;100875.94;;;7.41;100.00
48077;BME280;33854;57.708;12.008;2023-04-15T03:12:21;100866.50;;;7.39;100.00
48077;BME280;33854;57.708;12.008;2023-04-15T03:14:46;100874.22;;;7.40;100.00
48077;BME280;33854;57.708;12.008;2023-04-15T03:17:12;100872.59;;;7.38;100.00
48077;BME280;33854;57.708;12.008;2023-04-15T03:19:37;100879.44;;;7.40;100.00
48077;BME280;33854;57.708;12.008;2023-04-15T03:22:03;100879.50;;;7.39;100.00
48077;BME280;33854;57.708;12.008;2023-04-15T03:24:28;100878.69;;;7.37;100.00
48077;BME280;33854;57.708;12.008;2023-04-15T03:26:55;100885.66;;;7.35;100.00
48077;BME280;33854;57.708;12.008;2023-04-15T03:29:22;100886.66;;;7.31;100.00
48077;BME280;33854;57.708;12.008;2023-04-15T03:31:47;100884.06;;;7.31;100.00
48077;BME280;33854;57.708;12.008;2023-04-15T03:34:13;100886.59;;;7.32;100.00
48077;BME280;33854;57.708;12.008;2023-04-15T03:36:38;100886.69;;;7.29;100.00
48077;BME280;33854;57.708;12.008;2023-04-15T03:39:04;100885.00;;;7.28;100.00
48077;BME280;33854;57.708;12.008;2023-04-15T03:41:29;100883.25;;;7.29;100.00
48077;BME280;33854;57.708;12.008;2023-04-15T03:43:55;100883.31;;;7.27;100.00
48077;BME280;33854;57.708;12.008;2023-04-15T03:46:21;100890.28;;;7.25;100.00
48077;BME280;33854;57.708;12.008;2023-04-15T03:48:46;100879.84;;;7.27;100.00
48077;BME280;33854;57.708;12.008;2023-04-15T03:51:12;100898.94;;;7.26;100.00
48077;BME280;33854;57.708;12.008;2023-04-15T03:53:37;100886.88;;;7.23;100.00
48077;BME280;33854;57.708;12.008;2023-04-15T03:56:03;100888.56;;;7.26;100.00
48077;BME280;33854;57.708;12.008;2023-04-15T03:58:29;100898.09;;;7.25;100.00
48077;BME280;33854;57.708;12.008;2023-04-15T04:00:54;100897.41;;;7.19;100.00
48077;BME280;33854;57.708;12.008;2023-04-15T04:03:20;100897.50;;;7.16;100.00
48077;BME280;33854;57.708;12.008;2023-04-15T04:05:46;100894.81;;;7.19;100.00
48077;BME280;33854;57.708;12.008;2023-04-15T04:08:11;100886.41;;;7.11;100.00
48077;BME280;33854;57.708;12.008;2023-04-15T04:10:40;100901.66;;;7.21;100.00
48077;BME280;33854;57.708;12.008;2023-04-15T04:13:06;100893.16;;;7.16;100.00
48077;BME280;33854;57.708;12.008;2023-04-15T04:15:31;100901.81;;;7.17;100.00
48077;BME280;33854;57.708;12.008;2023-04-15T04:17:57;100889.88;;;7.10;100.00
48077;BME280;33854;57.708;12.008;2023-04-15T04:20:22;100900.25;;;7.10;100.00
48077;BME280;33854;57.708;12.008;2023-04-15T04:22:48;100902.94;;;7.07;100.00
48077;BME280;33854;57.708;12.008;2023-04-15T04:25:14;100905.53;;;7.07;100.00
48077;BME280;33854;57.708;12.008;2023-04-15T04:27:39;100905.69;;;7.02;100.00
48077;BME280;33854;57.708;12.008;2023-04-15T04:30:05;100911.81;;;7.00;100.00
48077;BME280;33854;57.708;12.008;2023-04-15T04:32:31;100892.91;;;6.95;100.00
48077;BME280;33854;57.708;12.008;2023-04-15T04:34:57;100910.06;;;7.00;100.00
48077;BME280;33854;57.708;12.008;2023-04-15T04:37:22;100920.56;;;6.96;100.00
48077;BME280;33854;57.708;12.008;2023-04-15T04:39:48;100910.44;;;6.86;100.00
48077;BME280;33854;57.708;12.008;2023-04-15T04:42:14;100916.66;;;6.81;100.00
48077;BME280;33854;57.708;12.008;2023-04-15T04:44:39;100919.31;;;6.79;100.00
48077;BME280;33854;57.708;12.008;2023-04-15T04:47:05;100918.47;;;6.77;100.00
48077;BME280;33854;57.708;12.008;2023-04-15T04:49:31;100922.91;;;6.74;100.00
48077;BME280;33854;57.708;12.008;2023-04-15T04:51:57;100929.84;;;6.73;100.00
48077;BME280;33854;57.708;12.008;2023-04-15T04:54:22;100928.09;;;6.74;100.00
48077;BME280;33854;57.708;12.008;2023-04-15T04:56:48;100933.97;;;6.80;100.00
48077;BME280;33854;57.708;12.008;2023-04-15T04:59:13;100937.25;;;6.87;100.00
48077;BME280;33854;57.708;12.008;2023-04-15T05:01:39;100941.56;;;6.88;100.00
48077;BME280;33854;57.708;12.008;2023-04-15T05:04:05;100946.59;;;6.93;100.00
48077;BME280;33854;57.708;12.008;2023-04-15T05:06:31;100944.91;;;6.92;100.00
48077;BME280;33854;57.708;12.008;2023-04-15T05:08:57;100943.97;;;6.94;100.00
48077;BME280;33854;57.708;12.008;2023-04-15T05:11:22;100944.16;;;6.86;100.00
48077;BME280;33854;57.708;12.008;2023-04-15T05:13:48;100949.34;;;6.88;100.00
48077;BME280;33854;57.708;12.008;2023-04-15T05:16:13;100949.13;;;6.96;100.00
48077;BME280;33854;57.708;12.008;2023-04-15T05:18:39;100945.50;;;7.01;100.00
48077;BME280;33854;57.708;12.008;2023-04-15T05:21:04;100957.50;;;7.05;100.00
48077;BME280;33854;57.708;12.008;2023-04-15T05:23:30;100950.50;;;7.09;100.00
48077;BME280;33854;57.708;12.008;2023-04-15T05:25:55;100957.16;;;7.17;100.00
48077;BME280;33854;57.708;12.008;2023-04-15T05:28:21;100957.91;;;7.21;100.00
48077;BME280;33854;57.708;12.008;2023-04-15T05:30:46;100954.41;;;7.22;100.00
48077;BME280;33854;57.708;12.008;2023-04-15T05:33:12;100960.25;;;7.30;100.00
48077;BME280;33854;57.708;12.008;2023-04-15T05:35:37;100961.81;;;7.35;100.00
48077;BME280;33854;57.708;12.008;2023-04-15T05:38:03;100972.91;;;7.40;100.00
48077;BME280;33854;57.708;12.008;2023-04-15T05:40:29;100976.31;;;7.42;100.00
48077;BME280;33854;57.708;12.008;2023-04-15T05:42:55;100974.69;;;7.38;100.00
48077;BME280;33854;57.708;12.008;2023-04-15T05:45:21;100984.97;;;7.43;100.00
48077;BME280;33854;57.708;12.008;2023-04-15T05:47:46;100990.25;;;7.40;100.00
48077;BME280;33854;57.708;12.008;2023-04-15T05:50:14;100988.38;;;7.45;100.00
48077;BME280;33854;57.708;12.008;2023-04-15T05:52:39;100996.06;;;7.48;100.00
48077;BME280;33854;57.708;12.008;2023-04-15T05:55:05;101003.84;;;7.48;100.00
48077;BME280;33854;57.708;12.008;2023-04-15T05:57:31;101001.97;;;7.53;100.00
48077;BME280;33854;57.708;12.008;2023-04-15T05:59:56;101009.66;;;7.56;100.00
48077;BME280;33854;57.708;12.008;2023-04-15T06:02:22;101010.56;;;7.55;100.00
48077;BME280;33854;57.708;12.008;2023-04-15T06:04:47;100996.78;;;7.53;100.00
48077;BME280;33854;57.708;12.008;2023-04-15T06:07:13;100996.88;;;7.50;100.00
48077;BME280;33854;57.708;12.008;2023-04-15T06:09:38;101015.66;;;7.58;100.00
48077;BME280;33854;57.708;12.008;2023-04-15T06:12:04;101018.00;;;7.67;100.00
48077;BME280;33854;57.708;12.008;2023-04-15T06:14:31;101026.03;;;7.60;100.00
48077;BME280;33854;57.708;12.008;2023-04-15T06:16:56;101025.75;;;7.69;100.00
48077;BME280;33854;57.708;12.008;2023-04-15T06:19:22;101027.31;;;7.74;100.00
48077;BME280;33854;57.708;12.008;2023-04-15T06:21:47;101031.59;;;7.75;100.00
48077;BME280;33854;57.708;12.008;2023-04-15T06:24:13;101039.84;;;7.89;100.00
48077;BME280;33854;57.708;12.008;2023-04-15T06:26:38;101045.78;;;7.94;100.00
48077;BME280;33854;57.708;12.008;2023-04-15T06:29:03;101040.56;;;7.94;100.00
48077;BME280;33854;57.708;12.008;2023-04-15T06:31:29;101054.38;;;7.96;100.00
48077;BME280;33854;57.708;12.008;2023-04-15T06:33:54;101049.34;;;7.90;100.00
48077;BME280;33854;57.708;12.008;2023-04-15T06:36:20;101044.84;;;7.95;100.00
48077;BME280;33854;57.708;12.008;2023-04-15T06:38:45;101053.31;;;8.02;100.00
48077;BME280;33854;57.708;12.008;2023-04-15T06:41:11;101055.78;;;8.07;100.00
48077;BME280;33854;57.708;12.008;2023-04-15T06:43:37;101061.91;;;8.04;100.00
48077;BME280;33854;57.708;12.008;2023-04-15T06:46:03;101063.53;;;8.08;100.00
48077;BME280;33854;57.708;12.008;2023-04-15T06:48:28;101064.41;;;8.09;100.00
48077;BME280;33854;57.708;12.008;2023-04-15T06:50:54;101076.06;;;8.23;100.00
48077;BME280;33854;57.708;12.008;2023-04-15T06:53:19;101063.25;;;8.17;100.00
48077;BME280;33854;57.708;12.008;2023-04-15T06:55:46;101074.38;;;8.22;100.00
48077;BME280;33854;57.708;12.008;2023-04-15T06:58:11;101071.19;;;8.13;100.00
48077;BME280;33854;57.708;12.008;2023-04-15T07:00:37;101065.91;;;8.16;100.00
48077;BME280;33854;57.708;12.008;2023-04-15T07:03:03;101062.41;;;8.17;100.00
48077;BME280;33854;57.708;12.008;2023-04-15T07:05:29;101079.22;;;8.34;100.00
48077;BME280;33854;57.708;12.008;2023-04-15T07:07:55;101083.47;;;8.37;100.00
48077;BME280;33854;57.708;12.008;2023-04-15T07:10:21;101078.19;;;8.40;100.00
48077;BME280;33854;57.708;12.008;2023-04-15T07:12:47;101059.63;;;8.50;100.00
48077;BME280;33854;57.708;12.008;2023-04-15T07:15:13;101082.56;;;8.64;100.00
48077;BME280;33854;57.708;12.008;2023-04-15T07:17:40;101073.78;;;8.68;100.00
48077;BME280;33854;57.708;12.008;2023-04-15T07:20:06;101089.09;;;8.77;100.00
48077;BME280;33854;57.708;12.008;2023-04-15T07:22:32;101096.41;;;8.92;100.00
48077;BME280;33854;57.708;12.008;2023-04-15T07:24:58;101098.00;;;8.96;100.00
48077;BME280;33854;57.708;12.008;2023-04-15T07:27:23;101101.38;;;8.98;100.00
48077;BME280;33854;57.708;12.008;2023-04-15T07:29:48;101104.81;;;9.00;100.00
48077;BME280;33854;57.708;12.008;2023-04-15T07:32:16;101111.16;;;8.92;100.00
48077;BME280;33854;57.708;12.008;2023-04-15T07:34:41;101100.41;;;8.76;100.00
48077;BME280;33854;57.708;12.008;2023-04-15T07:37:07;101106.09;;;8.87;100.00
48077;BME280;33854;57.708;12.008;2023-04-15T07:39:32;101107.81;;;8.88;100.00
48077;BME280;33854;57.708;12.008;2023-04-15T07:41:58;101104.34;;;8.88;100.00
48077;BME280;33854;57.708;12.008;2023-04-15T07:44:25;101112.81;;;8.94;100.00
48077;BME280;33854;57.708;12.008;2023-04-15T07:46:50;101114.06;;;8.83;100.00
48077;BME280;33854;57.708;12.008;2023-04-15T07:49:16;101102.88;;;8.81;100.00
48077;BME280;33854;57.708;12.008;2023-04-15T07:51:43;101120.81;;;8.88;100.00
48077;BME280;33854;57.708;12.008;2023-04-15T07:54:09;101120.53;;;8.97;100.00
48077;BME280;33854;57.708;12.008;2023-04-15T07:56:34;101118.63;;;9.02;100.00
48077;BME280;33854;57.708;12.008;2023-04-15T07:59:00;101129.50;;;9.13;100.00
48077;BME280;33854;57.708;12.008;2023-04-15T08:01:26;101129.31;;;9.20;100.00
48077;BME280;33854;57.708;12.008;2023-04-15T08:03:52;101144.84;;;9.23;100.00
48077;BME280;33854;57.708;12.008;2023-04-15T08:06:17;101137.13;;;9.20;100.00
48077;BME280;33854;57.708;12.008;2023-04-15T08:08:43;101146.06;;;9.12;100.00
48077;BME280;33854;57.708;12.008;2023-04-15T08:11:09;101139.94;;;9.13;100.00
48077;BME280;33854;57.708;12.008;2023-04-15T08:13:35;101146.00;;;9.14;100.00
48077;BME280;33854;57.708;12.008;2023-04-15T08:18:38;101148.25;;;8.98;100.00
48077;BME280;33854;57.708;12.008;2023-04-15T08:21:03;101144.25;;;9.14;100.00
48077;BME280;33854;57.708;12.008;2023-04-15T08:23:30;101144.09;;;9.19;100.00
48077;BME280;33854;57.708;12.008;2023-04-15T08:25:56;101152.44;;;9.29;100.00
48077;BME280;33854;57.708;12.008;2023-04-15T08:28:21;101153.59;;;9.20;100.00
48077;BME280;33854;57.708;12.008;2023-04-15T08:30:47;101154.25;;;9.27;100.00
48077;BME280;33854;57.708;12.008;2023-04-15T08:33:13;101155.81;;;9.32;100.00
48077;BME280;33854;57.708;12.008;2023-04-15T08:35:38;101163.16;;;9.44;100.00
48077;BME280;33854;57.708;12.008;2023-04-15T08:38:04;101159.22;;;9.33;100.00
48077;BME280;33854;57.708;12.008;2023-04-15T08:40:39;101159.56;;;9.24;100.00
48077;BME280;33854;57.708;12.008;2023-04-15T08:43:08;101167.19;;;9.30;100.00
48077;BME280;33854;57.708;12.008;2023-04-15T08:45:34;101166.13;;;9.35;100.00
48077;BME280;33854;57.708;12.008;2023-04-15T08:48:01;101172.13;;;9.37;100.00
48077;BME280;33854;57.708;12.008;2023-04-15T08:50:30;101180.72;;;9.39;100.00
48077;BME280;33854;57.708;12.008;2023-04-15T08:52:58;101179.75;;;9.42;100.00
48077;BME280;33854;57.708;12.008;2023-04-15T08:55:29;101166.94;;;9.36;100.00
48077;BME280;33854;57.708;12.008;2023-04-15T08:57:58;101180.59;;;9.44;100.00
48077;BME280;33854;57.708;12.008;2023-04-15T09:00:24;101185.72;;;9.45;100.00
48077;BME280;33854;57.708;12.008;2023-04-15T09:02:50;101184.97;;;9.42;100.00
48077;BME280;33854;57.708;12.008;2023-04-15T09:05:16;101182.63;;;9.34;100.00
48077;BME280;33854;57.708;12.008;2023-04-15T09:07:42;101183.00;;;9.48;100.00
48077;BME280;33854;57.708;12.008;2023-04-15T09:10:08;101192.38;;;9.54;100.00
48077;BME280;33854;57.708;12.008;2023-04-15T09:12:34;101185.25;;;9.59;100.00
48077;BME280;33854;57.708;12.008;2023-04-15T09:15:01;101184.63;;;9.52;100.00
48077;BME280;33854;57.708;12.008;2023-04-15T09:17:26;101189.47;;;9.63;100.00
48077;BME280;33854;57.708;12.008;2023-04-15T09:20:16;101193.38;;;9.74;100.00
48077;BME280;33854;57.708;12.008;2023-04-15T09:22:46;101186.16;;;9.83;100.00
48077;BME280;33854;57.708;12.008;2023-04-15T09:27:50;101192.47;;;10.00;100.00
48077;BME280;33854;57.708;12.008;2023-04-15T09:30:16;101197.34;;;10.09;100.00
48077;BME280;33854;57.708;12.008;2023-04-15T09:33:08;101203.69;;;10.27;100.00
48077;BME280;33854;57.708;12.008;2023-04-15T09:35:35;101204.50;;;10.51;100.00
48077;BME280;33854;57.708;12.008;2023-04-15T09:38:10;101198.56;;;10.91;100.00
48077;BME280;33854;57.708;12.008;2023-04-15T09:40:41;101200.53;;;11.07;100.00
48077;BME280;33854;57.708;12.008;2023-04-15T09:43:08;101202.47;;;11.22;100.00
48077;BME280;33854;57.708;12.008;2023-04-15T09:45:34;101185.44;;;11.34;100.00
48077;BME280;33854;57.708;12.008;2023-04-15T09:48:20;101201.25;;;11.73;100.00
48077;BME280;33854;57.708;12.008;2023-04-15T09:50:46;101204.50;;;11.98;100.00
48077;BME280;33854;57.708;12.008;2023-04-15T09:53:20;101200.97;;;12.18;100.00
48077;BME280;33854;57.708;12.008;2023-04-15T09:55:50;101198.88;;;12.44;100.00
48077;BME280;33854;57.708;12.008;2023-04-15T09:58:22;101194.31;;;12.85;100.00
48077;BME280;33854;57.708;12.008;2023-04-15T10:00:50;101194.25;;;13.40;100.00
48077;BME280;33854;57.708;12.008;2023-04-15T10:03:29;101193.56;;;13.53;100.00
48077;BME280;33854;57.708;12.008;2023-04-15T10:05:57;101207.22;;;13.60;100.00
48077;BME280;33854;57.708;12.008;2023-04-15T10:08:28;101215.81;;;13.96;100.00
48077;BME280;33854;57.708;12.008;2023-04-15T10:10:54;101218.03;;;13.87;100.00
48077;BME280;33854;57.708;12.008;2023-04-15T10:13:23;101224.16;;;13.87;100.00
48077;BME280;33854;57.708;12.008;2023-04-15T10:16:06;101224.25;;;13.86;100.00
48077;BME280;33854;57.708;12.008;2023-04-15T10:18:34;101228.72;;;14.16;100.00
48077;BME280;33854;57.708;12.008;2023-04-15T10:21:00;101229.66;;;14.15;100.00
48077;BME280;33854;57.708;12.008;2023-04-15T10:23:26;101217.31;;;14.17;100.00
48077;BME280;33854;57.708;12.008;2023-04-15T10:25:52;101228.72;;;14.49;100.00
48077;BME280;33854;57.708;12.008;2023-04-15T10:28:19;101220.34;;;14.58;100.00
48077;BME280;33854;57.708;12.008;2023-04-15T10:30:47;101217.38;;;14.80;100.00
48077;BME280;33854;57.708;12.008;2023-04-15T10:33:16;101220.59;;;15.01;100.00
48077;BME280;33854;57.708;12.008;2023-04-15T10:35:43;101224.50;;;15.09;100.00
48077;BME280;33854;57.708;12.008;2023-04-15T10:38:35;101220.38;;;15.19;100.00
48077;BME280;33854;57.708;12.008;2023-04-15T10:43:54;101214.78;;;15.10;100.00
48077;BME280;33854;57.708;12.008;2023-04-15T10:46:33;101211.34;;;14.94;100.00
48077;BME280;33854;57.708;12.008;2023-04-15T10:51:37;101210.66;;;15.35;100.00
48077;BME280;33854;57.708;12.008;2023-04-15T10:54:08;101219.50;;;15.64;100.00
48077;BME280;33854;57.708;12.008;2023-04-15T10:56:37;101223.28;;;15.60;100.00
48077;BME280;33854;57.708;12.008;2023-04-15T10:59:04;101227.09;;;15.98;100.00
48077;BME280;33854;57.708;12.008;2023-04-15T11:01:55;101215.38;;;16.18;100.00
48077;BME280;33854;57.708;12.008;2023-04-15T11:04:58;101214.03;;;16.25;100.00
48077;BME280;33854;57.708;12.008;2023-04-15T11:12:51;101207.97;;;17.06;100.00
48077;BME280;33854;57.708;12.008;2023-04-15T11:17:58;101216.59;;;17.08;100.00
48077;BME280;33854;57.708;12.008;2023-04-15T11:20:32;101212.78;;;17.27;100.00
48077;BME280;33854;57.708;12.008;2023-04-15T11:22:58;101212.84;;;17.13;100.00
48077;BME280;33854;57.708;12.008;2023-04-15T11:25:31;101217.19;;;16.99;100.00
48077;BME280;33854;57.708;12.008;2023-04-15T11:27:58;101229.91;;;17.07;100.00
48077;BME280;33854;57.708;12.008;2023-04-15T11:30:29;101218.84;;;16.88;100.00
48077;BME280;33854;57.708;12.008;2023-04-15T11:33:01;101220.53;;;16.89;100.00
48077;BME280;33854;57.708;12.008;2023-04-15T11:35:27;101224.03;;;16.89;100.00
48077;BME280;33854;57.708;12.008;2023-04-15T11:37:53;101225.34;;;16.82;100.00
48077;BME280;33854;57.708;12.008;2023-04-15T11:40:22;101227.00;;;16.57;100.00
48077;BME280;33854;57.708;12.008;2023-04-15T11:45:28;101222.78;;;16.40;100.00
48077;BME280;33854;57.708;12.008;2023-04-15T11:47:54;101232.19;;;16.58;100.00
48077;BME280;33854;57.708;12.008;2023-04-15T11:50:21;101222.22;;;17.17;100.00
48077;BME280;33854;57.708;12.008;2023-04-15T11:52:58;101220.81;;;17.64;100.00
48077;BME280;33854;57.708;12.008;2023-04-15T11:55:24;101221.00;;;17.99;100.00
48077;BME280;33854;57.708;12.008;2023-04-15T11:58:14;101207.09;;;17.45;100.00
48077;BME280;33854;57.708;12.008;2023-04-15T12:00:48;101229.75;;;17.62;100.00
48077;BME280;33854;57.708;12.008;2023-04-15T12:03:26;101229.38;;;18.18;100.00
48077;BME280;33854;57.708;12.008;2023-04-15T12:06:28;101221.06;;;18.73;100.00
48077;BME280;33854;57.708;12.008;2023-04-15T12:16:47;101227.69;;;19.50;100.00
48077;BME280;33854;57.708;12.008;2023-04-15T12:19:29;101232.00;;;19.16;100.00
48077;BME280;33854;57.708;12.008;2023-04-15T12:22:02;101233.09;;;19.01;100.00
48077;BME280;33854;57.708;12.008;2023-04-15T12:24:33;101236.00;;;18.62;100.00
48077;BME280;33854;57.708;12.008;2023-04-15T12:29:30;101227.22;;;20.24;100.00
48077;BME280;33854;57.708;12.008;2023-04-15T12:31:56;101226.63;;;20.32;98.73
48077;BME280;33854;57.708;12.008;2023-04-15T12:34:36;101221.78;;;20.15;93.53
48077;BME280;33854;57.708;12.008;2023-04-15T12:37:03;101223.66;;;20.25;91.94
48077;BME280;33854;57.708;12.008;2023-04-15T12:39:33;101209.63;;;20.23;88.72
48077;BME280;33854;57.708;12.008;2023-04-15T12:41:59;101232.75;;;20.21;88.02
48077;BME280;33854;57.708;12.008;2023-04-15T12:44:26;101223.56;;;20.92;84.33
48077;BME280;33854;57.708;12.008;2023-04-15T12:46:52;101219.03;;;21.46;83.06
48077;BME280;33854;57.708;12.008;2023-04-15T12:49:18;101222.16;;;20.21;86.13
48077;BME280;33854;57.708;12.008;2023-04-15T12:51:46;101227.50;;;20.32;89.07
48077;BME280;33854;57.708;12.008;2023-04-15T12:54:13;101234.63;;;21.08;82.45
48077;BME280;33854;57.708;12.008;2023-04-15T12:56:38;101224.13;;;21.18;81.88
48077;BME280;33854;57.708;12.008;2023-04-15T12:59:03;101228.00;;;21.02;79.08
48077;BME280;33854;57.708;12.008;2023-04-15T13:01:29;101233.03;;;20.63;80.97
48077;BME280;33854;57.708;12.008;2023-04-15T13:03:54;101237.00;;;20.57;82.13
48077;BME280;33854;57.708;12.008;2023-04-15T13:06:20;101233.38;;;20.03;81.71
48077;BME280;33854;57.708;12.008;2023-04-15T13:08:45;101230.75;;;20.47;82.20